createdAt,value
2022-12-15T00:02:05.626Z,21.30
2022-12-15T00:04:50.626Z,21.13
2022-12-15T00:07:35.625Z,21.33
2022-12-15T00:10:20.343Z,21.80
2022-12-15T00:13:05.510Z,20.23
2022-12-15T00:15:50.434Z,21.37
2022-12-15T00:18:35.239Z,21.53
2022-12-15T00:21:20.018Z,20.37
2022-12-15T00:24:04.858Z,20.00
2022-12-15T00:26:49.718Z,21.07
2022-12-15T00:29:34.498Z,20.30
2022-12-15T00:32:19.550Z,21.20
2022-12-15T00:35:04.531Z,21.83
2022-12-15T00:37:52.718Z,21.43
2022-12-15T00:40:19.126Z,20.40
2022-12-15T00:42:45.588Z,20.43
2022-12-15T00:45:16.242Z,21.20
2022-12-15T00:47:42.652Z,21.03
2022-12-15T00:50:27.742Z,21.47
2022-12-15T00:53:12.795Z,20.47
2022-12-15T00:55:57.460Z,18.60
2022-12-15T00:58:42.562Z,19.73
2022-12-15T01:01:28.763Z,19.63
2022-12-15T01:04:14.068Z,19.67
2022-12-15T01:06:59.351Z,18.67
2022-12-15T01:09:44.313Z,19.47
2022-12-15T01:12:29.133Z,19.93
2022-12-15T01:15:13.923Z,18.57
2022-12-15T01:17:58.800Z,18.30
2022-12-15T01:20:25.205Z,19.13
2022-12-15T01:22:54.075Z,18.43
2022-12-15T01:25:22.899Z,19.13
2022-12-15T01:27:49.771Z,17.97
2022-12-15T01:30:23.738Z,18.57
2022-12-15T01:32:50.221Z,18.40
2022-12-15T01:35:17.598Z,17.90
2022-12-15T01:37:44.714Z,19.10
2022-12-15T01:40:35.408Z,18.77
2022-12-15T01:43:02.206Z,19.23
2022-12-15T01:45:28.555Z,19.47
2022-12-15T01:47:56.366Z,17.60
2022-12-15T01:50:23.811Z,18.33
2022-12-15T01:52:50.659Z,18.83
2022-12-15T01:55:18.756Z,19.20
2022-12-15T01:57:46.798Z,18.87
2022-12-15T02:00:14.336Z,18.30
2022-12-15T02:02:41.277Z,17.37
2022-12-15T02:05:08.050Z,18.47
2022-12-15T02:07:34.421Z,19.70
2022-12-15T02:10:03.605Z,18.00
2022-12-15T02:13:04.460Z,19.30
2022-12-15T02:15:44.711Z,17.50
2022-12-15T02:18:22.650Z,18.67
2022-12-15T02:20:53.331Z,17.63
2022-12-15T02:23:40.644Z,18.03
2022-12-15T02:26:27.295Z,18.67
2022-12-15T02:29:15.671Z,18.27
2022-12-15T02:31:51.448Z,17.83
2022-12-15T02:34:34.918Z,18.63
2022-12-15T02:37:20.926Z,18.07
2022-12-15T02:39:47.366Z,17.90
2022-12-15T02:42:14.058Z,18.90
2022-12-15T02:44:53.983Z,17.83
2022-12-15T02:47:46.181Z,17.33
2022-12-15T02:50:40.567Z,17.83
2022-12-15T02:53:20.275Z,17.53
2022-12-15T02:56:08.447Z,17.13
2022-12-15T02:58:48.522Z,18.30
2022-12-15T03:01:23.078Z,17.87
2022-12-15T03:03:50.131Z,18.27
2022-12-15T03:06:16.861Z,18.57
2022-12-15T03:08:43.262Z,18.10
2022-12-15T03:11:09.643Z,16.90
2022-12-15T03:13:36.183Z,17.40
2022-12-15T03:16:03.055Z,16.90
2022-12-15T03:18:29.544Z,18.27
2022-12-15T03:20:55.925Z,17.90
2022-12-15T03:23:23.050Z,17.90
2022-12-15T03:25:50.351Z,17.30
2022-12-15T03:28:16.933Z,16.33
2022-12-15T03:30:43.455Z,18.00
2022-12-15T03:33:11.266Z,16.13
2022-12-15T03:35:37.647Z,17.93
2022-12-15T03:38:04.075Z,17.37
2022-12-15T03:40:30.503Z,16.87
2022-12-15T03:42:57.984Z,16.03
2022-12-15T03:45:26.491Z,16.90
2022-12-15T03:47:54.207Z,16.73
2022-12-15T03:50:23.424Z,16.70
2022-12-15T03:52:52.113Z,16.50
2022-12-15T03:55:19.015Z,16.93
2022-12-15T03:57:45.434Z,16.80
2022-12-15T04:00:14.879Z,17.03
2022-12-15T04:02:42.504Z,16.83
2022-12-15T04:05:09.544Z,16.67
2022-12-15T04:07:36.032Z,17.07
2022-12-15T04:10:02.443Z,17.10
2022-12-15T04:12:28.850Z,18.17
2022-12-15T04:14:55.328Z,16.97
2022-12-15T04:17:21.741Z,17.13
2022-12-15T04:20:06.688Z,17.33
2022-12-15T04:22:33.105Z,17.23
2022-12-15T04:25:18.075Z,17.50
2022-12-15T04:28:03.213Z,17.50
2022-12-15T04:30:49.596Z,17.10
2022-12-15T04:33:35.418Z,18.20
2022-12-15T04:36:20.761Z,18.17
2022-12-15T04:39:05.823Z,17.03
2022-12-15T04:41:51.032Z,16.80
2022-12-15T04:44:36.212Z,16.80
2022-12-15T04:47:21.862Z,17.10
2022-12-15T04:50:07.068Z,16.77
2022-12-15T04:52:51.880Z,16.70
2022-12-15T04:55:36.652Z,16.80
2022-12-15T04:58:26.694Z,17.30
2022-12-15T05:01:12.303Z,15.80
2022-12-15T05:03:57.697Z,16.07
2022-12-15T05:06:42.395Z,16.53
2022-12-15T05:09:27.209Z,15.57
2022-12-15T05:12:12.586Z,15.70
2022-12-15T05:14:57.651Z,16.53
2022-12-15T05:17:42.557Z,17.07
2022-12-15T05:20:28.101Z,17.27
2022-12-15T05:23:14.522Z,17.33
2022-12-15T05:25:59.699Z,17.67
2022-12-15T05:28:44.647Z,17.23
2022-12-15T05:31:29.509Z,16.87
2022-12-15T05:34:02.636Z,15.23
2022-12-15T05:36:31.451Z,15.57
2022-12-15T05:38:57.867Z,16.43
2022-12-15T05:41:24.459Z,15.37
2022-12-15T05:43:50.847Z,13.83
2022-12-15T05:46:17.291Z,15.47
2022-12-15T05:48:43.830Z,15.53
2022-12-15T05:51:11.457Z,15.83
2022-12-15T05:53:38.999Z,16.53
2022-12-15T05:56:07.520Z,14.67
2022-12-15T05:58:33.952Z,16.73
2022-12-15T06:01:14.295Z,15.17
2022-12-15T06:03:41.828Z,18.40
2022-12-15T06:06:09.556Z,21.03
2022-12-15T06:08:37.630Z,20.03
2022-12-15T06:11:04.643Z,19.57
2022-12-15T06:13:33.499Z,19.37
2022-12-15T06:16:21.025Z,19.83
2022-12-15T06:18:53.019Z,19.30
2022-12-15T06:21:26.251Z,17.93
2022-12-15T06:23:53.014Z,15.70
2022-12-15T06:26:23.302Z,16.57
2022-12-15T06:28:50.654Z,16.37
2022-12-15T06:31:22.517Z,18.10
2022-12-15T06:33:50.055Z,18.33
2022-12-15T06:36:17.731Z,19.43
2022-12-15T06:38:44.696Z,25.20
2022-12-15T06:41:18.177Z,28.07
2022-12-15T06:43:50.011Z,27.10
2022-12-15T06:46:16.630Z,24.60
2022-12-15T06:48:45.788Z,19.03
2022-12-15T06:51:17.176Z,18.47
2022-12-15T06:53:48.723Z,16.53
2022-12-15T06:56:30.728Z,17.07
2022-12-15T06:59:00.121Z,18.53
2022-12-15T07:01:26.740Z,18.50
2022-12-15T07:03:54.026Z,18.10
2022-12-15T07:06:21.498Z,16.70
2022-12-15T07:08:52.666Z,16.27
2022-12-15T07:11:20.909Z,15.67
2022-12-15T07:13:51.522Z,15.10
2022-12-15T07:16:18.677Z,15.27
2022-12-15T07:18:45.378Z,15.23
2022-12-15T07:21:11.820Z,15.53
2022-12-15T07:23:56.339Z,16.30
2022-12-15T07:26:23.804Z,16.40
2022-12-15T07:28:50.289Z,16.83
2022-12-15T07:31:17.625Z,17.00
2022-12-15T07:33:44.192Z,17.13
2022-12-15T07:36:10.980Z,17.27
2022-12-15T07:38:37.488Z,16.50
2022-12-15T07:41:06.788Z,16.83
2022-12-15T07:43:33.921Z,15.57
2022-12-15T07:46:00.818Z,15.63
2022-12-15T07:48:27.508Z,16.27
2022-12-15T07:51:02.857Z,16.37
2022-12-15T07:53:33.780Z,16.30
2022-12-15T07:56:07.570Z,17.30
2022-12-15T07:58:35.403Z,19.30
2022-12-15T08:01:03.388Z,21.50
2022-12-15T08:03:30.912Z,21.70
2022-12-15T08:06:03.665Z,23.93
2022-12-15T08:08:31.160Z,22.63
2022-12-15T08:10:57.904Z,19.70
2022-12-15T08:14:00.241Z,19.33
2022-12-15T08:16:11.634Z,18.10
2022-12-15T08:18:39.468Z,19.73
2022-12-15T08:21:10.288Z,20.70
2022-12-15T08:23:36.959Z,21.87
2022-12-15T08:26:09.416Z,46.53
2022-12-15T08:28:36.639Z,37.97
2022-12-15T08:31:04.677Z,33.53
2022-12-15T08:33:31.864Z,33.00
2022-12-15T08:36:05.013Z,32.53
2022-12-15T08:38:31.796Z,29.97
2022-12-15T08:40:58.707Z,30.60
2022-12-15T08:43:25.093Z,30.30
2022-12-15T08:45:51.589Z,28.80
2022-12-15T08:48:18.076Z,28.77
2022-12-15T08:50:45.841Z,28.30
2022-12-15T08:53:30.810Z,27.53
2022-12-15T08:56:05.730Z,26.67
2022-12-15T08:58:32.725Z,25.40
2022-12-15T09:01:06.910Z,24.10
2022-12-15T09:03:34.557Z,22.80
2022-12-15T09:06:10.183Z,20.40
2022-12-15T09:08:36.570Z,17.77
2022-12-15T09:11:05.426Z,16.53
2022-12-15T09:13:32.940Z,16.30
2022-12-15T09:16:09.859Z,17.57
2022-12-15T09:18:37.317Z,16.63
2022-12-15T09:21:05.775Z,15.87
2022-12-15T09:23:32.779Z,16.30
2022-12-15T09:26:04.678Z,16.47
2022-12-15T09:28:32.061Z,14.83
2022-12-15T09:31:08.854Z,14.07
2022-12-15T09:33:36.245Z,13.73
2022-12-15T09:36:03.696Z,14.03
2022-12-15T09:38:30.969Z,15.10
2022-12-15T09:40:57.495Z,14.10
2022-12-15T09:43:35.244Z,15.00
2022-12-15T09:46:20.675Z,15.10
2022-12-15T09:48:48.041Z,16.27
2022-12-15T09:51:16.937Z,16.10
2022-12-15T09:53:59.249Z,14.80
2022-12-15T09:56:53.208Z,15.03
2022-12-15T09:59:46.593Z,15.80
2022-12-15T10:02:27.008Z,15.20
2022-12-15T10:05:15.143Z,14.50
2022-12-15T10:07:50.535Z,14.83
2022-12-15T10:10:25.960Z,14.17
2022-12-15T10:13:04.888Z,14.83
2022-12-15T10:15:41.475Z,12.83
2022-12-15T10:18:14.042Z,12.17
2022-12-15T10:20:40.530Z,13.63
2022-12-15T10:23:13.630Z,13.60
2022-12-15T10:25:46.129Z,13.33
2022-12-15T10:28:44.783Z,12.60
2022-12-15T10:31:32.795Z,12.90
2022-12-15T10:34:10.172Z,11.90
2022-12-15T10:36:36.953Z,12.27
2022-12-15T10:39:03.440Z,11.37
2022-12-15T10:41:32.419Z,11.33
2022-12-15T10:43:58.897Z,13.17
2022-12-15T10:46:27.905Z,13.27
2022-12-15T10:48:57.518Z,17.17
2022-12-15T10:51:32.328Z,11.33
2022-12-15T10:54:19.052Z,81.00
2022-12-15T10:56:53.876Z,24.87
2022-12-15T10:59:36.040Z,13.63
2022-12-15T11:02:24.128Z,20.20
2022-12-15T11:05:02.945Z,19.13
2022-12-15T11:07:36.410Z,17.77
2022-12-15T11:10:14.034Z,19.87
2022-12-15T11:12:58.104Z,13.80
2022-12-15T11:15:24.872Z,24.97
2022-12-15T11:18:00.882Z,66.70
2022-12-15T11:20:31.652Z,37.10
2022-12-15T11:23:04.925Z,53.73
2022-12-15T11:25:45.209Z,25.00
2022-12-15T11:28:18.519Z,15.23
2022-12-15T11:30:59.988Z,13.23
2022-12-15T11:33:26.428Z,12.80
2022-12-15T11:36:01.297Z,23.93
2022-12-15T11:38:44.457Z,12.43
2022-12-15T11:41:22.888Z,15.40
2022-12-15T11:44:04.260Z,13.97
2022-12-15T11:46:51.260Z,35.30
2022-12-15T11:49:50.854Z,33.73
2022-12-15T11:52:17.203Z,23.30
2022-12-15T11:55:10.857Z,14.23
2022-12-15T11:58:06.288Z,11.70
2022-12-15T12:00:39.940Z,16.93
2022-12-15T12:03:31.904Z,30.53
2022-12-15T12:06:13.291Z,21.87
2022-12-15T12:08:45.702Z,21.80
2022-12-15T12:11:17.016Z,16.57
2022-12-15T12:14:11.791Z,21.87
2022-12-15T12:16:46.981Z,10.43
2022-12-15T12:19:24.197Z,13.90
2022-12-15T12:21:56.137Z,12.00
2022-12-15T12:24:37.448Z,24.07
2022-12-15T12:27:27.469Z,14.53
2022-12-15T12:30:00.736Z,11.43
2022-12-15T12:32:40.343Z,13.33
2022-12-15T12:38:10.161Z,15.00
2022-12-15T12:41:02.605Z,14.13
2022-12-15T12:44:07.650Z,13.57
2022-12-15T12:46:39.207Z,11.10
2022-12-15T12:49:12.436Z,14.60
2022-12-15T12:51:40.548Z,12.50
2022-12-15T12:54:37.991Z,21.53
2022-12-15T12:57:13.529Z,10.13
2022-12-15T13:00:00.757Z,13.87
2022-12-15T13:02:27.216Z,13.47
2022-12-15T13:05:27.511Z,11.20
2022-12-15T13:08:13.803Z,9.77
2022-12-15T13:10:42.432Z,13.10
2022-12-15T13:13:42.080Z,23.17
2022-12-15T13:16:24.500Z,9.87
2022-12-15T13:19:09.197Z,10.07
2022-12-15T13:21:41.736Z,8.00
2022-12-15T13:24:26.021Z,8.73
2022-12-15T13:26:52.877Z,9.23
2022-12-15T13:29:23.038Z,15.63
2022-12-15T13:31:50.150Z,10.47
2022-12-15T13:34:20.240Z,8.77
2022-12-15T13:36:54.802Z,10.43
2022-12-15T13:39:27.706Z,8.70
2022-12-15T13:42:31.529Z,15.17
2022-12-15T13:44:45.364Z,9.67
2022-12-15T13:47:30.766Z,12.10
2022-12-15T13:50:06.192Z,10.37
2022-12-15T13:55:38.237Z,19.80
2022-12-15T13:58:16.250Z,19.63
2022-12-15T14:00:56.764Z,14.10
2022-12-15T14:03:23.719Z,15.80
2022-12-15T14:05:57.048Z,10.53
2022-12-15T14:08:27.226Z,25.47
2022-12-15T14:10:55.847Z,9.90
2022-12-15T14:13:34.887Z,13.97
2022-12-15T14:16:05.298Z,10.80
2022-12-15T14:18:34.193Z,13.40
2022-12-15T14:21:02.225Z,10.07
2022-12-15T14:23:40.356Z,10.33
2022-12-15T14:26:09.246Z,13.57
2022-12-15T14:28:37.718Z,9.43
2022-12-15T14:31:07.218Z,11.43
2022-12-15T14:33:36.518Z,9.30
2022-12-15T14:36:08.083Z,9.30
2022-12-15T14:38:57.708Z,9.17
2022-12-15T14:41:28.226Z,14.67
2022-12-15T14:44:31.440Z,18.80
2022-12-15T14:46:48.759Z,8.00
2022-12-15T14:49:20.794Z,15.83
2022-12-15T14:51:50.881Z,22.20
2022-12-15T14:54:37.873Z,11.67
2022-12-15T14:57:21.962Z,16.53
2022-12-15T14:59:49.075Z,21.47
2022-12-15T15:02:26.966Z,20.63
2022-12-15T15:03:11.540Z,24.67
2022-12-15T15:05:03.299Z,17.23
2022-12-15T15:07:34.551Z,10.57
2022-12-15T15:10:01.711Z,9.10
2022-12-15T15:12:48.362Z,10.03
2022-12-15T15:15:17.103Z,19.67
2022-12-15T15:17:54.913Z,10.03
2022-12-15T15:20:36.006Z,14.07
2022-12-15T15:23:13.314Z,8.67
2022-12-15T15:25:42.557Z,8.43
2022-12-15T15:28:19.201Z,8.63
2022-12-15T15:30:48.526Z,9.80
2022-12-15T15:33:16.483Z,8.90
2022-12-15T15:35:44.278Z,10.37
2022-12-15T15:38:18.700Z,12.07
2022-12-15T15:40:49.895Z,9.93
2022-12-15T15:43:16.525Z,9.40
2022-12-15T15:45:43.185Z,9.43
2022-12-15T15:48:17.475Z,10.77
2022-12-15T15:50:44.292Z,9.77
2022-12-15T15:53:16.506Z,11.30
2022-12-15T15:55:43.310Z,11.90
2022-12-15T15:58:13.074Z,14.10
2022-12-15T16:00:40.118Z,24.37
2022-12-15T16:03:07.178Z,14.97
2022-12-15T16:05:33.931Z,15.03
2022-12-15T16:08:00.985Z,15.97
2022-12-15T16:10:28.071Z,12.40
2022-12-15T16:12:55.772Z,13.37
2022-12-15T16:15:25.812Z,21.10
2022-12-15T16:17:52.961Z,16.23
2022-12-15T16:20:21.530Z,15.27
2022-12-15T16:22:51.110Z,13.10
2022-12-15T16:25:20.113Z,10.60
2022-12-15T16:27:46.616Z,13.45
2022-12-15T16:30:18.511Z,10.83
2022-12-15T16:32:45.015Z,29.80
2022-12-15T16:35:12.502Z,14.20
2022-12-15T16:37:40.042Z,11.43
2022-12-15T16:40:22.783Z,12.00
2022-12-15T16:42:58.276Z,12.90
2022-12-15T16:45:27.251Z,19.70
2022-12-15T16:47:53.784Z,12.00
2022-12-15T16:50:26.184Z,22.60
2022-12-15T16:52:53.950Z,14.43
2022-12-15T16:55:25.290Z,13.37
2022-12-15T16:57:52.626Z,12.97
2022-12-15T17:00:22.124Z,12.47
2022-12-15T17:02:49.193Z,10.83
2022-12-15T17:05:16.091Z,10.90
2022-12-15T17:07:43.558Z,10.20
2022-12-15T17:10:18.346Z,9.47
2022-12-15T17:12:45.177Z,11.63
2022-12-15T17:15:26.530Z,10.80
2022-12-15T17:17:54.945Z,9.53
2022-12-15T17:20:31.555Z,9.40
2022-12-15T17:23:19.621Z,9.43
2022-12-15T17:26:21.128Z,9.90
2022-12-15T17:28:36.647Z,11.53
2022-12-15T17:31:03.801Z,9.57
2022-12-15T17:33:33.239Z,11.57
2022-12-15T17:36:02.099Z,9.93
2022-12-15T17:38:28.685Z,10.33
2022-12-15T17:40:55.464Z,9.43
2022-12-15T17:43:29.476Z,10.37
2022-12-15T17:46:00.107Z,10.17
2022-12-15T17:48:26.501Z,9.80
2022-12-15T17:50:53.300Z,9.60
2022-12-15T17:53:21.266Z,9.40
2022-12-15T17:55:49.671Z,8.97
2022-12-15T17:58:18.818Z,9.27
2022-12-15T18:00:49.160Z,10.03
2022-12-15T18:03:16.517Z,9.30
2022-12-15T18:05:43.273Z,9.97
2022-12-15T18:08:16.303Z,8.37
2022-12-15T18:10:42.752Z,8.93
2022-12-15T18:13:33.305Z,9.50
2022-12-15T18:16:02.010Z,8.53
2022-12-15T18:18:28.743Z,8.60
2022-12-15T18:21:00.209Z,8.87
2022-12-15T18:23:30.568Z,8.63
2022-12-15T18:26:02.669Z,8.73
2022-12-15T18:28:31.996Z,8.80
2022-12-15T18:31:10.443Z,10.37
2022-12-15T18:33:36.950Z,9.37
2022-12-15T18:36:03.599Z,9.30
2022-12-15T18:38:30.200Z,9.93
2022-12-15T18:41:00.343Z,9.03
2022-12-15T18:43:32.536Z,9.70
2022-12-15T18:45:59.318Z,9.60
2022-12-15T18:48:31.277Z,10.27
2022-12-15T18:50:59.287Z,9.10
2022-12-15T18:53:34.828Z,10.83
2022-12-15T18:56:06.276Z,10.10
2022-12-15T18:58:37.822Z,9.87
2022-12-15T19:01:05.471Z,10.27
2022-12-15T19:03:32.742Z,9.20
2022-12-15T19:05:59.312Z,8.80
2022-12-15T19:08:25.894Z,9.57
2022-12-15T19:10:55.922Z,9.90
2022-12-15T19:13:25.427Z,9.17
2022-12-15T19:15:53.224Z,9.73
2022-12-15T19:18:40.750Z,9.07
2022-12-15T19:21:48.443Z,9.53
2022-12-15T19:24:44.908Z,10.23
2022-12-15T19:27:13.236Z,10.30
2022-12-15T19:29:40.463Z,11.07
2022-12-15T19:32:07.788Z,10.83
2022-12-15T19:34:34.803Z,10.40
2022-12-15T19:37:01.875Z,10.37
2022-12-15T19:39:29.149Z,10.67
2022-12-15T19:41:55.960Z,10.80
2022-12-15T19:44:22.456Z,11.10
2022-12-15T19:46:48.876Z,10.03
2022-12-15T19:49:15.371Z,10.53
2022-12-15T19:51:42.559Z,9.37
2022-12-15T19:54:16.076Z,10.20
2022-12-15T19:56:42.517Z,10.10
2022-12-15T19:59:24.610Z,10.43
2022-12-15T20:01:51.766Z,9.83
2022-12-15T20:04:22.436Z,8.90
2022-12-15T20:06:50.570Z,9.63
2022-12-15T20:09:18.531Z,8.80
2022-12-15T20:11:45.507Z,9.63
2022-12-15T20:14:13.430Z,10.23
2022-12-15T20:16:40.105Z,10.00
2022-12-15T20:19:06.910Z,10.57
2022-12-15T20:21:38.789Z,10.90
2022-12-15T20:24:08.108Z,10.63
2022-12-15T20:26:36.331Z,10.10
2022-12-15T20:29:03.759Z,10.30
2022-12-15T20:31:30.261Z,10.53
2022-12-15T20:33:56.772Z,10.10
2022-12-15T20:36:25.949Z,9.53
2022-12-15T20:38:53.178Z,8.77
2022-12-15T20:41:25.162Z,8.70
2022-12-15T20:43:52.550Z,8.77
2022-12-15T20:46:33.583Z,9.07
2022-12-15T20:49:00.163Z,8.63
2022-12-15T20:51:32.109Z,7.50
2022-12-15T20:54:00.836Z,7.67
2022-12-15T20:56:27.980Z,7.20
2022-12-15T20:58:55.971Z,7.57
2022-12-15T21:01:28.534Z,7.50
2022-12-15T21:03:57.572Z,8.23
2022-12-15T21:06:25.327Z,7.77
2022-12-15T21:08:52.292Z,8.17
2022-12-15T21:11:24.405Z,7.43
2022-12-15T21:13:52.939Z,7.37
2022-12-15T21:16:22.170Z,7.23
2022-12-15T21:19:18.640Z,6.87
2022-12-15T21:21:38.513Z,6.37
2022-12-15T21:24:25.594Z,6.47
2022-12-15T21:26:52.269Z,6.00
2022-12-15T21:29:21.326Z,7.20
2022-12-15T21:31:47.822Z,6.80
2022-12-15T21:34:14.393Z,6.20
2022-12-15T21:36:42.965Z,7.37
2022-12-15T21:39:13.224Z,7.90
2022-12-15T21:41:41.801Z,6.57
2022-12-15T21:44:15.069Z,7.10
2022-12-15T21:46:41.769Z,8.13
2022-12-15T21:49:15.148Z,7.50
2022-12-15T21:51:43.803Z,8.30
2022-12-15T21:54:30.626Z,8.17
2022-12-15T21:56:58.207Z,8.00
2022-12-15T21:59:26.864Z,8.73
2022-12-15T22:01:55.122Z,7.77
2022-12-15T22:04:41.620Z,8.00
2022-12-15T22:07:10.978Z,8.10
2022-12-15T22:09:37.368Z,8.60
2022-12-15T22:12:04.508Z,7.60
2022-12-15T22:14:34.328Z,8.10
2022-12-15T22:17:17.112Z,8.40
2022-12-15T22:19:43.868Z,8.53
2022-12-15T22:22:10.380Z,8.43
2022-12-15T22:24:36.794Z,8.90
2022-12-15T22:27:03.288Z,7.97
2022-12-15T22:29:31.498Z,7.93
2022-12-15T22:31:58.164Z,8.80
2022-12-15T22:34:26.691Z,8.60
2022-12-15T22:36:53.101Z,8.10
2022-12-15T22:39:21.513Z,9.17
2022-12-15T22:41:53.522Z,8.37
2022-12-15T22:44:26.258Z,8.70
2022-12-15T22:46:54.779Z,7.53
2022-12-15T22:49:24.139Z,7.43
2022-12-15T22:51:50.721Z,7.60
2022-12-15T22:54:24.880Z,7.77
2022-12-15T22:57:05.909Z,7.70
2022-12-15T22:59:41.100Z,8.40
2022-12-15T23:02:08.609Z,7.87
2022-12-15T23:04:35.203Z,7.40
2022-12-15T23:07:04.104Z,5.60
2022-12-15T23:09:30.899Z,7.07
2022-12-15T23:11:58.886Z,7.17
2022-12-15T23:14:43.873Z,7.10
2022-12-15T23:17:11.117Z,5.47
2022-12-15T23:19:37.551Z,6.23
2022-12-15T23:22:03.992Z,7.67
2022-12-15T23:24:31.230Z,7.00
2022-12-15T23:26:57.682Z,6.70
2022-12-15T23:29:24.787Z,7.23
2022-12-15T23:31:51.190Z,6.20
2022-12-15T23:34:18.431Z,6.17
2022-12-15T23:36:44.842Z,7.17
2022-12-15T23:39:11.287Z,6.73
2022-12-15T23:41:37.671Z,9.00
2022-12-15T23:44:05.562Z,8.77
2022-12-15T23:46:32.159Z,8.63
2022-12-15T23:48:59.584Z,7.47
2022-12-15T23:51:25.990Z,9.17
2022-12-15T23:53:52.583Z,8.07
2022-12-15T23:56:23.826Z,8.23
2022-12-15T23:58:58.167Z,8.00
